createdAt,value
2018-06-19T00:00:10.843Z,4.92
2018-06-19T00:00:23.235Z,4.92
2018-06-19T00:00:35.680Z,4.92
2018-06-19T00:00:48.141Z,4.92
2018-06-19T00:01:00.589Z,4.92
2018-06-19T00:01:13.173Z,4.92
2018-06-19T00:01:25.594Z,4.92
2018-06-19T00:01:37.989Z,4.92
2018-06-19T00:01:50.391Z,4.92
2018-06-19T00:02:02.832Z,4.92
2018-06-19T00:02:15.248Z,4.92
2018-06-19T00:02:27.681Z,4.92
2018-06-19T00:02:40.191Z,4.92
2018-06-19T00:02:52.619Z,4.92
2018-06-19T00:03:05.026Z,4.92
2018-06-19T00:03:17.473Z,4.92
2018-06-19T00:03:29.861Z,4.92
2018-06-19T00:03:42.277Z,4.92
2018-06-19T00:03:54.686Z,4.92
2018-06-19T00:04:07.110Z,4.92
2018-06-19T00:04:19.508Z,4.92
2018-06-19T00:04:31.911Z,4.92
2018-06-19T00:04:44.321Z,4.92
2018-06-19T00:04:56.785Z,4.92
2018-06-19T00:05:09.212Z,4.92
2018-06-19T00:05:21.596Z,4.92
2018-06-19T00:05:34.009Z,4.92
2018-06-19T00:05:46.411Z,4.92
2018-06-19T00:05:58.829Z,4.92
2018-06-19T00:06:11.222Z,4.92
2018-06-19T00:06:23.636Z,4.92
2018-06-19T00:06:36.413Z,4.92
2018-06-19T00:06:48.814Z,4.92
2018-06-19T00:07:01.211Z,4.92
2018-06-19T00:07:13.652Z,4.92
2018-06-19T00:07:26.137Z,4.92
2018-06-19T00:07:38.527Z,4.92
2018-06-19T00:07:50.990Z,4.92
2018-06-19T00:08:03.392Z,4.92
2018-06-19T00:08:15.795Z,4.92
2018-06-19T00:08:28.206Z,4.92
2018-06-19T00:08:40.601Z,4.92
2018-06-19T00:08:53.055Z,4.92
2018-06-19T00:09:05.473Z,4.92
2018-06-19T00:09:17.925Z,5.23
2018-06-19T00:09:30.329Z,5.23
2018-06-19T00:09:42.743Z,5.23
2018-06-19T00:09:55.145Z,5.23
2018-06-19T00:10:07.556Z,5.23
2018-06-19T00:10:19.966Z,5.23
2018-06-19T00:10:32.411Z,5.23
2018-06-19T00:10:44.818Z,5.23
2018-06-19T00:10:57.221Z,5.23
2018-06-19T00:11:09.605Z,5.23
2018-06-19T00:11:22.010Z,5.23
2018-06-19T00:11:34.604Z,5.23
2018-06-19T00:11:47.027Z,5.23
2018-06-19T00:11:59.426Z,5.23
2018-06-19T00:12:11.829Z,5.23
2018-06-19T00:12:24.236Z,5.23
2018-06-19T00:12:36.620Z,5.23
2018-06-19T00:12:49.035Z,5.23
2018-06-19T00:13:01.440Z,5.23
2018-06-19T00:13:13.830Z,5.23
2018-06-19T00:13:26.269Z,5.23
2018-06-19T00:13:38.699Z,5.23
2018-06-19T00:13:51.098Z,5.23
2018-06-19T00:14:03.495Z,5.23
2018-06-19T00:14:15.897Z,5.23
2018-06-19T00:14:28.313Z,5.23
2018-06-19T00:14:40.722Z,5.23
2018-06-19T00:14:53.117Z,5.23
2018-06-19T00:15:05.519Z,5.23
2018-06-19T00:15:17.922Z,5.23
2018-06-19T00:15:30.381Z,5.23
2018-06-19T00:15:42.778Z,5.23
2018-06-19T00:15:55.226Z,5.23
2018-06-19T00:16:07.660Z,5.23
2018-06-19T00:16:20.123Z,5.23
2018-06-19T00:16:32.573Z,5.23
2018-06-19T00:16:44.956Z,5.23
2018-06-19T00:16:57.368Z,5.23
2018-06-19T00:17:09.760Z,5.23
2018-06-19T00:17:22.146Z,5.23
2018-06-19T00:17:34.581Z,5.23
2018-06-19T00:17:46.960Z,5.23
2018-06-19T00:17:59.593Z,5.23
2018-06-19T00:18:11.987Z,5.23
2018-06-19T00:18:24.442Z,5.23
2018-06-19T00:18:36.861Z,5.23
2018-06-19T00:18:49.267Z,5.23
2018-06-19T00:19:01.669Z,5.23
2018-06-19T00:19:14.202Z,5.23
2018-06-19T00:19:26.611Z,5
2018-06-19T00:19:39.001Z,5
2018-06-19T00:19:51.396Z,5
2018-06-19T00:20:03.808Z,5
2018-06-19T00:20:16.220Z,5
2018-06-19T00:20:28.608Z,5
2018-06-19T00:20:41.005Z,5
2018-06-19T00:20:53.402Z,5
2018-06-19T00:21:05.958Z,5
2018-06-19T00:21:18.349Z,5
2018-06-19T00:21:30.751Z,5
2018-06-19T00:21:43.221Z,5
2018-06-19T00:21:55.601Z,5
2018-06-19T00:22:08.013Z,5
2018-06-19T00:22:20.426Z,5
2018-06-19T00:22:32.834Z,5
2018-06-19T00:22:45.249Z,5
2018-06-19T00:22:57.643Z,5
2018-06-19T00:23:10.035Z,5
2018-06-19T00:23:22.491Z,5
2018-06-19T00:23:34.870Z,5
2018-06-19T00:23:47.305Z,5
2018-06-19T00:23:59.838Z,5
2018-06-19T00:24:12.236Z,5
2018-06-19T00:24:24.614Z,5
2018-06-19T00:24:37.025Z,5
2018-06-19T00:24:49.405Z,5
2018-06-19T00:25:01.784Z,5
2018-06-19T00:25:14.185Z,5
2018-06-19T00:25:26.590Z,5
2018-06-19T00:25:38.971Z,5
2018-06-19T00:25:51.355Z,5
2018-06-19T00:26:03.750Z,5
2018-06-19T00:26:16.157Z,5
2018-06-19T00:26:28.584Z,5
2018-06-19T00:26:41.001Z,5
2018-06-19T00:26:53.431Z,5
2018-06-19T00:27:06.118Z,5
2018-06-19T00:27:18.514Z,5
2018-06-19T00:27:30.942Z,5
2018-06-19T00:27:43.322Z,5
2018-06-19T00:27:55.973Z,5
2018-06-19T00:28:08.383Z,5
2018-06-19T00:28:20.770Z,5
2018-06-19T00:28:33.171Z,5
2018-06-19T00:28:45.582Z,5
2018-06-19T00:28:58.022Z,5
2018-06-19T00:29:10.432Z,5
2018-06-19T00:29:22.876Z,3.88
2018-06-19T00:29:35.279Z,3.88
2018-06-19T00:29:47.792Z,3.88
2018-06-19T00:30:00.188Z,3.88
2018-06-19T00:30:12.605Z,3.88
2018-06-19T00:30:24.990Z,3.88
2018-06-19T00:30:37.382Z,3.88
2018-06-19T00:30:49.770Z,3.88
2018-06-19T00:31:02.184Z,3.88
2018-06-19T00:31:14.595Z,3.88
2018-06-19T00:31:26.979Z,3.88
2018-06-19T00:31:39.513Z,3.88
2018-06-19T00:31:52.012Z,3.88
2018-06-19T00:32:04.421Z,3.88
2018-06-19T00:32:16.829Z,3.88
2018-06-19T00:32:29.235Z,3.88
2018-06-19T00:32:41.641Z,3.88
2018-06-19T00:32:54.062Z,3.88
2018-06-19T00:33:06.452Z,3.88
2018-06-19T00:33:18.874Z,3.88
2018-06-19T00:33:31.296Z,3.88
2018-06-19T00:33:43.697Z,3.88
2018-06-19T00:33:56.123Z,3.88
2018-06-19T00:34:08.538Z,3.88
2018-06-19T00:34:20.955Z,3.88
2018-06-19T00:34:33.367Z,3.88
2018-06-19T00:34:45.853Z,3.88
2018-06-19T00:34:58.260Z,3.88
2018-06-19T00:35:10.677Z,3.88
2018-06-19T00:35:23.119Z,3.88
2018-06-19T00:35:35.537Z,3.88
2018-06-19T00:35:47.957Z,3.88
2018-06-19T00:36:00.398Z,3.88
2018-06-19T00:36:12.811Z,3.88
2018-06-19T00:36:25.222Z,3.88
2018-06-19T00:36:37.616Z,3.88
2018-06-19T00:36:50.026Z,3.88
2018-06-19T00:37:02.484Z,3.88
2018-06-19T00:37:14.915Z,3.88
2018-06-19T00:37:27.315Z,3.88
2018-06-19T00:37:39.700Z,3.88
2018-06-19T00:37:52.098Z,3.88
2018-06-19T00:38:04.485Z,3.88
2018-06-19T00:38:16.884Z,3.88
2018-06-19T00:38:29.282Z,3.88
2018-06-19T00:38:41.686Z,3.88
2018-06-19T00:38:54.088Z,3.88
2018-06-19T00:39:06.490Z,3.88
2018-06-19T00:39:18.887Z,3.75
2018-06-19T00:39:31.294Z,3.75
2018-06-19T00:39:43.831Z,3.75
2018-06-19T00:39:56.249Z,3.75
2018-06-19T00:40:08.642Z,3.75
2018-06-19T00:40:21.050Z,3.75
2018-06-19T00:40:33.450Z,3.75
2018-06-19T00:40:45.836Z,3.75
2018-06-19T00:40:58.218Z,3.75
2018-06-19T00:41:10.607Z,3.75
2018-06-19T00:41:23.005Z,3.75
2018-06-19T00:41:35.481Z,3.75
2018-06-19T00:41:47.877Z,3.75
2018-06-19T00:42:00.416Z,3.75
2018-06-19T00:42:12.824Z,3.75
2018-06-19T00:42:25.254Z,3.75
2018-06-19T00:42:37.659Z,3.75
2018-06-19T00:42:50.067Z,3.75
2018-06-19T00:43:02.472Z,3.75
2018-06-19T00:43:14.891Z,3.75
2018-06-19T00:43:27.288Z,3.75
2018-06-19T00:43:39.698Z,3.75
2018-06-19T00:43:52.103Z,3.75
2018-06-19T00:44:04.495Z,3.75
2018-06-19T00:44:16.900Z,3.75
2018-06-19T00:44:29.313Z,3.75
2018-06-19T00:44:41.699Z,3.75
2018-06-19T00:44:54.098Z,3.75
2018-06-19T00:45:06.522Z,3.75
2018-06-19T00:45:18.938Z,3.75
2018-06-19T00:45:31.337Z,3.75
2018-06-19T00:45:43.748Z,3.75
2018-06-19T00:45:56.429Z,3.75
2018-06-19T00:46:08.907Z,3.75
2018-06-19T00:46:21.307Z,3.75
2018-06-19T00:46:33.723Z,3.75
2018-06-19T00:46:46.119Z,3.75
2018-06-19T00:46:58.519Z,3.75
2018-06-19T00:47:10.919Z,3.75
2018-06-19T00:47:23.308Z,3.75
2018-06-19T00:47:35.745Z,3.75
2018-06-19T00:47:48.209Z,3.75
2018-06-19T00:48:00.608Z,3.75
2018-06-19T00:48:13.032Z,3.75
2018-06-19T00:48:25.444Z,3.75
2018-06-19T00:48:37.988Z,3.75
2018-06-19T00:48:50.377Z,3.75
2018-06-19T00:49:02.782Z,3.75
2018-06-19T00:49:15.211Z,3.75
2018-06-19T00:49:27.631Z,7.75
2018-06-19T00:49:40.021Z,7.75
2018-06-19T00:49:52.440Z,7.75
2018-06-19T00:50:04.863Z,7.75
2018-06-19T00:50:17.265Z,7.75
2018-06-19T00:50:29.670Z,7.75
2018-06-19T00:50:42.063Z,7.75
2018-06-19T00:50:54.449Z,7.75
2018-06-19T00:51:06.861Z,7.75
2018-06-19T00:51:19.252Z,7.75
2018-06-19T00:51:31.662Z,7.75
2018-06-19T00:51:44.100Z,7.75
2018-06-19T00:51:56.510Z,7.75
2018-06-19T00:52:08.933Z,7.75
2018-06-19T00:52:21.358Z,7.75
2018-06-19T00:52:33.771Z,7.75
2018-06-19T00:52:46.159Z,7.75
2018-06-19T00:52:58.553Z,7.75
2018-06-19T00:53:10.937Z,7.75
2018-06-19T00:53:23.334Z,7.75
2018-06-19T00:53:35.770Z,7.75
2018-06-19T00:53:48.174Z,7.75
2018-06-19T00:54:00.560Z,7.75
2018-06-19T00:54:13.024Z,7.75
2018-06-19T00:54:25.415Z,7.75
2018-06-19T00:54:37.837Z,7.75
2018-06-19T00:54:50.260Z,7.75
2018-06-19T00:55:02.663Z,7.75
2018-06-19T00:55:15.100Z,7.75
2018-06-19T00:55:27.525Z,7.75
2018-06-19T00:55:39.958Z,7.75
2018-06-19T00:55:52.368Z,7.75
2018-06-19T00:56:04.768Z,7.75
2018-06-19T00:56:17.166Z,7.75
2018-06-19T00:56:29.775Z,7.75
2018-06-19T00:56:42.848Z,7.75
2018-06-19T00:56:55.263Z,7.75
2018-06-19T00:57:07.674Z,7.75
2018-06-19T00:57:20.089Z,7.75
2018-06-19T00:57:32.487Z,7.75
2018-06-19T00:57:44.882Z,7.75
2018-06-19T00:57:57.295Z,7.75
2018-06-19T00:58:09.724Z,7.75
2018-06-19T00:58:22.160Z,7.75
2018-06-19T00:58:34.570Z,7.75
2018-06-19T00:58:46.966Z,7.75
2018-06-19T00:58:59.375Z,7.75
2018-06-19T00:59:11.774Z,7.75
2018-06-19T00:59:24.385Z,5.42
2018-06-19T00:59:36.785Z,5.42
2018-06-19T00:59:49.188Z,5.42
2018-06-19T01:00:01.618Z,5.42
2018-06-19T01:00:14.045Z,5.42
2018-06-19T01:00:26.439Z,5.42
2018-06-19T01:00:38.896Z,5.42
2018-06-19T01:00:51.334Z,5.42
2018-06-19T01:01:03.759Z,5.42
2018-06-19T01:01:16.324Z,5.42
2018-06-19T01:01:28.739Z,5.42
2018-06-19T01:01:41.171Z,5.42
2018-06-19T01:01:53.645Z,5.42
2018-06-19T01:02:06.093Z,5.42
2018-06-19T01:02:18.522Z,5.42
2018-06-19T01:02:30.902Z,5.42
2018-06-19T01:02:43.456Z,5.42
2018-06-19T01:02:55.860Z,5.42
2018-06-19T01:03:08.273Z,5.42
2018-06-19T01:03:20.680Z,5.42
2018-06-19T01:03:33.075Z,5.42
2018-06-19T01:03:45.475Z,5.42
2018-06-19T01:03:57.905Z,5.42
2018-06-19T01:04:10.357Z,5.42
2018-06-19T01:04:22.775Z,5.42
2018-06-19T01:04:35.191Z,5.42
2018-06-19T01:04:47.599Z,5.42
2018-06-19T01:04:59.981Z,5.42
2018-06-19T01:05:12.363Z,5.42
2018-06-19T01:05:24.746Z,5.42
2018-06-19T01:05:37.151Z,5.42
2018-06-19T01:05:49.540Z,5.42
2018-06-19T01:06:01.932Z,5.42
2018-06-19T01:06:14.337Z,5.42
2018-06-19T01:06:26.906Z,5.42
2018-06-19T01:06:39.475Z,5.42
2018-06-19T01:06:51.870Z,5.42
2018-06-19T01:07:04.248Z,5.42
2018-06-19T01:07:16.745Z,5.42
2018-06-19T01:07:29.150Z,5.42
2018-06-19T01:07:41.536Z,5.42
2018-06-19T01:07:53.931Z,5.42
2018-06-19T01:08:06.364Z,5.42
2018-06-19T01:08:18.762Z,5.42
2018-06-19T01:08:31.148Z,5.42
2018-06-19T01:08:43.542Z,5.42
2018-06-19T01:08:55.953Z,5.42
2018-06-19T01:09:08.358Z,5.42
2018-06-19T01:09:20.760Z,6.87
2018-06-19T01:09:33.231Z,6.87
2018-06-19T01:09:45.629Z,6.87
2018-06-19T01:09:58.035Z,6.87
2018-06-19T01:10:10.432Z,6.87
2018-06-19T01:10:22.854Z,6.87
2018-06-19T01:10:35.310Z,6.87
2018-06-19T01:10:47.686Z,6.87
2018-06-19T01:11:00.119Z,6.87
2018-06-19T01:11:12.531Z,6.87
2018-06-19T01:11:24.942Z,6.87
2018-06-19T01:11:37.339Z,6.87
2018-06-19T01:11:49.797Z,6.87
2018-06-19T01:12:02.343Z,6.87
2018-06-19T01:12:14.746Z,6.87
2018-06-19T01:12:27.166Z,6.87
2018-06-19T01:12:39.563Z,6.87
2018-06-19T01:12:51.969Z,6.87
2018-06-19T01:13:04.354Z,6.87
2018-06-19T01:13:16.751Z,6.87
2018-06-19T01:13:29.173Z,6.87
2018-06-19T01:13:41.556Z,6.87
2018-06-19T01:13:53.962Z,6.87
2018-06-19T01:14:06.392Z,6.87
2018-06-19T01:14:18.821Z,6.87
2018-06-19T01:14:31.228Z,6.87
2018-06-19T01:14:43.618Z,6.87
2018-06-19T01:14:56.016Z,6.87
2018-06-19T01:15:08.446Z,6.87
2018-06-19T01:15:20.839Z,6.87
2018-06-19T01:15:33.241Z,6.87
2018-06-19T01:15:45.669Z,6.87
2018-06-19T01:15:58.064Z,6.87
2018-06-19T01:16:10.482Z,6.87
2018-06-19T01:16:22.868Z,6.87
2018-06-19T01:16:35.272Z,6.87
2018-06-19T01:16:47.717Z,6.87
2018-06-19T01:17:00.201Z,6.87
2018-06-19T01:17:12.613Z,6.87
2018-06-19T01:17:25.028Z,6.87
2018-06-19T01:17:37.443Z,6.87
2018-06-19T01:17:49.860Z,6.87
2018-06-19T01:18:02.374Z,6.87
2018-06-19T01:18:14.770Z,6.87
2018-06-19T01:18:27.164Z,6.87
2018-06-19T01:18:39.552Z,6.87
2018-06-19T01:18:51.929Z,6.87
2018-06-19T01:19:04.314Z,6.87
2018-06-19T01:19:16.821Z,6.87
2018-06-19T01:19:29.224Z,3.32
2018-06-19T01:19:41.618Z,3.32
2018-06-19T01:19:54.007Z,3.32
2018-06-19T01:20:06.406Z,3.32
2018-06-19T01:20:18.816Z,3.32
2018-06-19T01:20:31.215Z,3.32
2018-06-19T01:20:43.601Z,3.32
2018-06-19T01:20:55.997Z,3.32
2018-06-19T01:21:08.392Z,3.32
2018-06-19T01:21:20.810Z,3.32
2018-06-19T01:21:33.376Z,3.32
2018-06-19T01:21:45.786Z,3.32
2018-06-19T01:21:58.237Z,3.32
2018-06-19T01:22:10.649Z,3.32
2018-06-19T01:22:23.037Z,3.32
2018-06-19T01:22:35.443Z,3.32
2018-06-19T01:22:47.832Z,3.32
2018-06-19T01:23:00.220Z,3.32
2018-06-19T01:23:12.630Z,3.32
2018-06-19T01:23:25.018Z,3.32
2018-06-19T01:23:37.413Z,3.32
2018-06-19T01:23:49.795Z,3.32
2018-06-19T01:24:02.349Z,3.32
2018-06-19T01:24:14.759Z,3.32
2018-06-19T01:24:27.197Z,3.32
2018-06-19T01:24:39.584Z,3.32
2018-06-19T01:24:51.984Z,3.32
2018-06-19T01:25:04.401Z,3.32
2018-06-19T01:25:16.796Z,3.32
2018-06-19T01:25:29.354Z,3.32
2018-06-19T01:25:41.883Z,3.32
2018-06-19T01:25:54.284Z,3.32
2018-06-19T01:26:06.671Z,3.32
2018-06-19T01:26:19.066Z,3.32
2018-06-19T01:26:31.465Z,3.32
2018-06-19T01:26:43.868Z,3.32
2018-06-19T01:26:56.407Z,3.32
2018-06-19T01:27:08.945Z,3.32
2018-06-19T01:27:21.503Z,3.32
2018-06-19T01:27:33.909Z,3.32
2018-06-19T01:27:46.296Z,3.32
2018-06-19T01:27:58.705Z,3.32
2018-06-19T01:28:11.110Z,3.32
2018-06-19T01:28:23.582Z,3.32
2018-06-19T01:28:36.166Z,3.32
2018-06-19T01:28:49.185Z,3.32
2018-06-19T01:29:01.594Z,3.32
2018-06-19T01:29:13.987Z,3.32
2018-06-19T01:29:26.393Z,4.8
2018-06-19T01:29:38.788Z,4.8
2018-06-19T01:29:51.205Z,4.8
2018-06-19T01:30:03.614Z,4.8
2018-06-19T01:30:16.044Z,4.8
2018-06-19T01:30:28.450Z,4.8
2018-06-19T01:30:40.839Z,4.8
2018-06-19T01:30:53.253Z,4.8
2018-06-19T01:31:05.674Z,4.8
2018-06-19T01:31:18.101Z,4.8
2018-06-19T01:31:30.502Z,4.8
2018-06-19T01:31:42.934Z,4.8
2018-06-19T01:31:55.353Z,4.8
2018-06-19T01:32:07.745Z,4.8
2018-06-19T01:32:20.203Z,4.8
2018-06-19T01:32:32.584Z,4.8
2018-06-19T01:32:44.997Z,4.8
2018-06-19T01:32:57.390Z,4.8
2018-06-19T01:33:09.787Z,4.8
2018-06-19T01:33:22.203Z,4.8
2018-06-19T01:33:35.000Z,4.8
2018-06-19T01:33:47.412Z,4.8
2018-06-19T01:33:59.817Z,4.8
2018-06-19T01:34:12.204Z,4.8
2018-06-19T01:34:24.593Z,4.8
2018-06-19T01:34:36.999Z,4.8
2018-06-19T01:34:49.402Z,4.8
2018-06-19T01:35:01.786Z,4.8
2018-06-19T01:35:14.219Z,4.8
2018-06-19T01:35:26.626Z,4.8
2018-06-19T01:35:39.026Z,4.8
2018-06-19T01:35:51.431Z,4.8
2018-06-19T01:36:03.831Z,4.8
2018-06-19T01:36:16.257Z,4.8
2018-06-19T01:36:28.645Z,4.8
2018-06-19T01:36:41.037Z,4.8
2018-06-19T01:36:53.452Z,4.8
2018-06-19T01:37:05.862Z,4.8
2018-06-19T01:37:18.341Z,4.8
2018-06-19T01:37:30.752Z,4.8
2018-06-19T01:37:43.233Z,4.8
2018-06-19T01:37:55.838Z,4.8
2018-06-19T01:38:09.319Z,4.8
2018-06-19T01:38:23.165Z,4.8
2018-06-19T01:38:35.600Z,4.8
2018-06-19T01:38:47.985Z,4.8
2018-06-19T01:39:00.396Z,4.8
2018-06-19T01:39:12.805Z,4.8
2018-06-19T01:39:25.201Z,4.08
2018-06-19T01:39:37.596Z,4.08
2018-06-19T01:39:49.990Z,4.08
2018-06-19T01:40:02.418Z,4.08
2018-06-19T01:40:14.806Z,4.08
2018-06-19T01:40:27.217Z,4.08
2018-06-19T01:40:39.640Z,4.08
2018-06-19T01:40:52.045Z,4.08
2018-06-19T01:41:04.619Z,4.08
2018-06-19T01:41:17.020Z,4.08
2018-06-19T01:41:29.418Z,4.08
2018-06-19T01:41:41.821Z,4.08
2018-06-19T01:41:54.273Z,4.08
2018-06-19T01:42:06.747Z,4.08
2018-06-19T01:42:19.206Z,4.08
2018-06-19T01:42:31.600Z,4.08
2018-06-19T01:42:44.017Z,4.08
2018-06-19T01:42:56.417Z,4.08
2018-06-19T01:43:08.837Z,4.08
2018-06-19T01:43:21.246Z,4.08
2018-06-19T01:43:33.646Z,4.08
2018-06-19T01:43:46.212Z,4.08
2018-06-19T01:43:58.629Z,4.08
2018-06-19T01:44:11.019Z,4.08
2018-06-19T01:44:23.442Z,4.08
2018-06-19T01:44:35.825Z,4.08
2018-06-19T01:44:48.219Z,4.08
2018-06-19T01:45:00.633Z,4.08
2018-06-19T01:45:13.033Z,4.08
2018-06-19T01:45:25.426Z,4.08
2018-06-19T01:45:37.817Z,4.08
2018-06-19T01:45:50.222Z,4.08
2018-06-19T01:46:02.786Z,4.08
2018-06-19T01:46:15.170Z,4.08
2018-06-19T01:46:27.569Z,4.08
2018-06-19T01:46:39.972Z,4.08
2018-06-19T01:46:52.398Z,4.08
2018-06-19T01:47:04.815Z,4.08
2018-06-19T01:47:17.233Z,4.08
2018-06-19T01:47:29.652Z,4.08
2018-06-19T01:47:42.041Z,4.08
2018-06-19T01:47:54.429Z,4.08
2018-06-19T01:48:06.829Z,4.08
2018-06-19T01:48:19.217Z,4.08
2018-06-19T01:48:31.614Z,4.08
2018-06-19T01:48:44.159Z,4.08
2018-06-19T01:48:56.595Z,4.08
2018-06-19T01:49:09.049Z,4.08
2018-06-19T01:49:21.463Z,4.08
2018-06-19T01:49:33.880Z,4.93
2018-06-19T01:49:46.294Z,4.93
2018-06-19T01:49:58.694Z,4.93
2018-06-19T01:50:11.083Z,4.93
2018-06-19T01:50:23.499Z,4.93
2018-06-19T01:50:35.896Z,4.93
2018-06-19T01:50:48.281Z,4.93
2018-06-19T01:51:00.697Z,4.93
2018-06-19T01:51:13.109Z,4.93
2018-06-19T01:51:25.511Z,4.93
2018-06-19T01:51:37.911Z,4.93
2018-06-19T01:51:50.296Z,4.93
2018-06-19T01:52:02.676Z,4.93
2018-06-19T01:52:15.082Z,4.93
2018-06-19T01:52:27.503Z,4.93
2018-06-19T01:52:39.888Z,4.93
2018-06-19T01:52:52.276Z,4.93
2018-06-19T01:53:04.690Z,4.93
2018-06-19T01:53:17.064Z,4.93
2018-06-19T01:53:29.453Z,4.93
2018-06-19T01:53:41.877Z,4.93
2018-06-19T01:53:54.263Z,4.93
2018-06-19T01:54:06.648Z,4.93
2018-06-19T01:54:19.045Z,4.93
2018-06-19T01:54:31.442Z,4.93
2018-06-19T01:54:43.831Z,4.93
2018-06-19T01:54:56.252Z,4.93
2018-06-19T01:55:08.662Z,4.93
2018-06-19T01:55:21.056Z,4.93
2018-06-19T01:55:33.446Z,4.93
2018-06-19T01:55:45.850Z,4.93
2018-06-19T01:55:58.230Z,4.93
2018-06-19T01:56:10.621Z,4.93
2018-06-19T01:56:23.034Z,4.93
2018-06-19T01:56:35.438Z,4.93
2018-06-19T01:56:47.852Z,4.93
2018-06-19T01:57:00.264Z,4.93
2018-06-19T01:57:12.676Z,4.93
2018-06-19T01:57:25.151Z,4.93
2018-06-19T01:57:37.546Z,4.93
2018-06-19T01:57:49.926Z,4.93
2018-06-19T01:58:02.324Z,4.93
2018-06-19T01:58:14.713Z,4.93
2018-06-19T01:58:27.150Z,4.93
2018-06-19T01:58:39.624Z,4.93
2018-06-19T01:58:52.022Z,4.93
2018-06-19T01:59:04.417Z,4.93
2018-06-19T01:59:16.806Z,4.93
2018-06-19T01:59:29.199Z,6.6
2018-06-19T01:59:41.595Z,6.6
2018-06-19T01:59:54.128Z,6.6
2018-06-19T02:00:06.509Z,6.6
2018-06-19T02:00:18.905Z,6.6
2018-06-19T02:00:31.339Z,6.6
2018-06-19T02:00:43.748Z,6.6
2018-06-19T02:00:56.178Z,6.6
2018-06-19T02:01:08.757Z,6.6
2018-06-19T02:01:21.233Z,6.6
2018-06-19T02:01:33.637Z,6.6
2018-06-19T02:01:46.049Z,6.6
2018-06-19T02:01:58.532Z,6.6
2018-06-19T02:02:10.975Z,6.6
2018-06-19T02:02:23.382Z,6.6
2018-06-19T02:02:35.858Z,6.6
2018-06-19T02:02:48.370Z,6.6
2018-06-19T02:03:00.799Z,6.6
2018-06-19T02:03:13.209Z,6.6
2018-06-19T02:03:25.619Z,6.6
2018-06-19T02:03:38.012Z,6.6
2018-06-19T02:03:50.427Z,6.6
2018-06-19T02:04:02.834Z,6.6
2018-06-19T02:04:15.231Z,6.6
2018-06-19T02:04:27.684Z,6.6
2018-06-19T02:04:40.081Z,6.6
2018-06-19T02:04:52.496Z,6.6
2018-06-19T02:05:04.887Z,6.6
2018-06-19T02:05:17.280Z,6.6
2018-06-19T02:05:29.708Z,6.6
2018-06-19T02:05:42.134Z,6.6
2018-06-19T02:05:54.535Z,6.6
2018-06-19T02:06:06.954Z,6.6
2018-06-19T02:06:19.359Z,6.6
2018-06-19T02:06:31.878Z,6.6
2018-06-19T02:06:44.287Z,6.6
2018-06-19T02:06:56.780Z,6.6
2018-06-19T02:07:09.202Z,6.6
2018-06-19T02:07:21.692Z,6.6
2018-06-19T02:07:34.081Z,6.6
2018-06-19T02:07:46.461Z,6.6
2018-06-19T02:07:58.842Z,6.6
2018-06-19T02:08:11.232Z,6.6
2018-06-19T02:08:23.613Z,6.6
2018-06-19T02:08:36.083Z,6.6
2018-06-19T02:08:48.497Z,6.6
2018-06-19T02:09:00.918Z,6.6
2018-06-19T02:09:13.347Z,6.6
2018-06-19T02:09:25.752Z,5.46
2018-06-19T02:09:38.131Z,5.46
2018-06-19T02:09:50.603Z,5.46
2018-06-19T02:10:03.003Z,5.46
2018-06-19T02:10:15.416Z,5.46
2018-06-19T02:10:27.818Z,5.46
2018-06-19T02:10:40.214Z,5.46
2018-06-19T02:10:52.622Z,5.46
2018-06-19T02:11:05.062Z,5.46
2018-06-19T02:11:17.596Z,5.46
2018-06-19T02:11:30.000Z,5.46
2018-06-19T02:11:42.419Z,5.46
2018-06-19T02:11:54.833Z,5.46
2018-06-19T02:12:07.257Z,5.46
2018-06-19T02:12:19.689Z,5.46
2018-06-19T02:12:32.093Z,5.46
2018-06-19T02:12:44.482Z,5.46
2018-06-19T02:12:56.867Z,5.46
2018-06-19T02:13:09.283Z,5.46
2018-06-19T02:13:21.674Z,5.46
2018-06-19T02:13:34.057Z,5.46
2018-06-19T02:13:46.458Z,5.46
2018-06-19T02:13:58.874Z,5.46
2018-06-19T02:14:11.287Z,5.46
2018-06-19T02:14:23.701Z,5.46
2018-06-19T02:14:36.134Z,5.46
2018-06-19T02:14:48.543Z,5.46
2018-06-19T02:15:00.978Z,5.46
2018-06-19T02:15:13.450Z,5.46
2018-06-19T02:15:25.878Z,5.46
2018-06-19T02:15:38.274Z,5.46
2018-06-19T02:15:50.694Z,5.46
2018-06-19T02:16:03.105Z,5.46
2018-06-19T02:16:15.501Z,5.46
2018-06-19T02:16:27.907Z,5.46
2018-06-19T02:16:40.299Z,5.46
2018-06-19T02:16:52.697Z,5.46
2018-06-19T02:17:05.102Z,5.46
2018-06-19T02:17:17.494Z,5.46
2018-06-19T02:17:29.917Z,5.46
2018-06-19T02:17:42.317Z,5.46
2018-06-19T02:17:54.884Z,5.46
2018-06-19T02:18:07.264Z,5.46
2018-06-19T02:18:19.669Z,5.46
2018-06-19T02:18:32.086Z,5.46
2018-06-19T02:18:44.515Z,5.46
2018-06-19T02:18:56.933Z,5.46
2018-06-19T02:19:09.354Z,5.46
2018-06-19T02:19:21.893Z,5.46
2018-06-19T02:19:34.331Z,5.78
2018-06-19T02:19:46.720Z,5.78
2018-06-19T02:19:59.155Z,5.78
2018-06-19T02:20:11.568Z,5.78
2018-06-19T02:20:23.972Z,5.78
2018-06-19T02:20:36.368Z,5.78
2018-06-19T02:20:48.756Z,5.78
2018-06-19T02:21:01.169Z,5.78
2018-06-19T02:21:13.574Z,5.78
2018-06-19T02:21:25.983Z,5.78
2018-06-19T02:21:38.403Z,5.78
2018-06-19T02:21:50.809Z,5.78
2018-06-19T02:22:03.219Z,5.78
2018-06-19T02:22:15.620Z,5.78
2018-06-19T02:22:28.028Z,5.78
2018-06-19T02:22:40.417Z,5.78
2018-06-19T02:22:52.815Z,5.78
2018-06-19T02:23:05.388Z,5.78
2018-06-19T02:23:17.804Z,5.78
2018-06-19T02:23:30.202Z,5.78
2018-06-19T02:23:42.592Z,5.78
2018-06-19T02:23:55.158Z,5.78
2018-06-19T02:24:07.581Z,5.78
2018-06-19T02:24:19.966Z,5.78
2018-06-19T02:24:32.357Z,5.78
2018-06-19T02:24:44.763Z,5.78
2018-06-19T02:24:57.331Z,5.78
2018-06-19T02:25:09.742Z,5.78
2018-06-19T02:25:22.169Z,5.78
2018-06-19T02:25:34.572Z,5.78
2018-06-19T02:25:46.988Z,5.78
2018-06-19T02:25:59.372Z,5.78
2018-06-19T02:26:11.792Z,5.78
2018-06-19T02:26:24.200Z,5.78
2018-06-19T02:26:36.603Z,5.78
2018-06-19T02:26:48.997Z,5.78
2018-06-19T02:27:01.581Z,5.78
2018-06-19T02:27:14.191Z,5.78
2018-06-19T02:27:26.587Z,5.78
2018-06-19T02:27:38.984Z,5.78
2018-06-19T02:27:51.357Z,5.78
2018-06-19T02:28:03.753Z,5.78
2018-06-19T02:28:16.245Z,5.78
2018-06-19T02:28:28.638Z,5.78
2018-06-19T02:28:41.054Z,5.78
2018-06-19T02:28:53.453Z,5.78
2018-06-19T02:29:05.846Z,5.78
2018-06-19T02:29:18.367Z,5.78
2018-06-19T02:29:30.779Z,6.13
2018-06-19T02:29:43.225Z,6.13
2018-06-19T02:29:55.620Z,6.13
2018-06-19T02:30:08.058Z,6.13
2018-06-19T02:30:20.509Z,6.13
2018-06-19T02:30:32.932Z,6.13
2018-06-19T02:30:45.417Z,6.13
2018-06-19T02:30:57.852Z,6.13
2018-06-19T02:31:10.303Z,6.13
2018-06-19T02:31:22.741Z,6.13
2018-06-19T02:31:35.154Z,6.13
2018-06-19T02:31:47.593Z,6.13
2018-06-19T02:32:00.006Z,6.13
2018-06-19T02:32:12.421Z,6.13
2018-06-19T02:32:24.851Z,6.13
2018-06-19T02:32:37.272Z,6.13
2018-06-19T02:32:49.686Z,6.13
2018-06-19T02:33:02.127Z,6.13
2018-06-19T02:33:14.532Z,6.13
2018-06-19T02:33:26.963Z,6.13
2018-06-19T02:33:39.421Z,6.13
2018-06-19T02:33:51.860Z,6.13
2018-06-19T02:34:04.296Z,6.13
2018-06-19T02:34:16.730Z,6.13
2018-06-19T02:34:29.171Z,6.13
2018-06-19T02:34:41.587Z,6.13
2018-06-19T02:34:53.996Z,6.13
2018-06-19T02:35:06.427Z,6.13
2018-06-19T02:35:18.824Z,6.13
2018-06-19T02:35:31.224Z,6.13
2018-06-19T02:35:43.667Z,6.13
2018-06-19T02:35:56.081Z,6.13
2018-06-19T02:36:08.514Z,6.13
2018-06-19T02:36:20.919Z,6.13
2018-06-19T02:36:33.326Z,6.13
2018-06-19T02:36:45.753Z,6.13
2018-06-19T02:36:58.211Z,6.13
2018-06-19T02:37:10.619Z,6.13
2018-06-19T02:37:23.051Z,6.13
2018-06-19T02:37:35.458Z,6.13
2018-06-19T02:37:47.876Z,6.13
2018-06-19T02:38:00.270Z,6.13
2018-06-19T02:38:12.679Z,6.13
2018-06-19T02:38:25.107Z,6.13
2018-06-19T02:38:37.551Z,6.13
2018-06-19T02:38:49.966Z,6.13
2018-06-19T02:39:02.412Z,6.13
2018-06-19T02:39:14.893Z,6.13
2018-06-19T02:39:27.321Z,7.01
2018-06-19T02:39:39.737Z,7.01
2018-06-19T02:39:52.180Z,7.01
2018-06-19T02:40:04.633Z,7.01
2018-06-19T02:40:17.141Z,7.01
2018-06-19T02:40:29.648Z,7.01
2018-06-19T02:40:42.081Z,7.01
2018-06-19T02:40:54.511Z,7.01
2018-06-19T02:41:06.976Z,7.01
2018-06-19T02:41:19.390Z,7.01
2018-06-19T02:41:31.916Z,7.01
2018-06-19T02:41:44.315Z,7.01
2018-06-19T02:41:56.848Z,7.01
2018-06-19T02:42:09.283Z,7.01
2018-06-19T02:42:21.769Z,7.01
2018-06-19T02:42:34.176Z,7.01
2018-06-19T02:42:46.656Z,7.01
2018-06-19T02:42:59.051Z,7.01
2018-06-19T02:43:11.452Z,7.01
2018-06-19T02:43:23.862Z,7.01
2018-06-19T02:43:36.267Z,7.01
2018-06-19T02:43:48.683Z,7.01
2018-06-19T02:44:01.083Z,7.01
2018-06-19T02:44:13.512Z,7.01
2018-06-19T02:44:26.021Z,7.01
2018-06-19T02:44:38.434Z,7.01
2018-06-19T02:44:50.859Z,7.01
2018-06-19T02:45:03.300Z,7.01
2018-06-19T02:45:15.736Z,7.01
2018-06-19T02:45:28.140Z,7.01
2018-06-19T02:45:40.559Z,7.01
2018-06-19T02:45:53.054Z,7.01
2018-06-19T02:46:05.472Z,7.01
2018-06-19T02:46:17.864Z,7.01
2018-06-19T02:46:30.315Z,7.01
2018-06-19T02:46:42.706Z,7.01
2018-06-19T02:46:55.138Z,7.01
2018-06-19T02:47:07.554Z,7.01